Melvin, Iowa
Current Conditions -  °F | °C
As of 10:35 PM on Thursday 18 Dec 2014 (Local Time) from KSHL Reporting Station
Overcast Overcast  
Wind Chill: 19°   Ceiling: 1300
Heat Index: 27°   Visibility: 9mi
Dew Point: 27°   Wind: 7mph
Humidity: 100%   Direction: 170°S
Pressure: 30.19"   Gusts: NA
Location:  43.29°N, 95.61°W
Report Text: KSHL 190435Z AUTO 17006KT 9SM OVC013 M03/M03 A3019 RMK AO2
Loading
Personal Weather Stations






























Interactive Weather Map New forecast layout! Learn more

10-Day Weather Forecast

Advertisements
Track Severe Weather on mobile